createdAt,value
2023-09-19T00:03:23.992Z,99315.03
2023-09-19T00:08:25.674Z,99312.84
2023-09-19T00:13:27.017Z,99306.28
2023-09-19T00:18:33.433Z,99312.84
2023-09-19T00:23:34.727Z,99307.91
2023-09-19T00:28:36.439Z,99299.69
2023-09-19T00:33:38.211Z,99291.78
2023-09-19T00:38:39.651Z,99289.88
2023-09-19T00:43:41.507Z,99286.00
2023-09-19T00:48:45.272Z,99286.31
2023-09-19T00:53:47.555Z,99286.00
2023-09-19T00:58:49.116Z,99287.38
2023-09-19T01:03:50.926Z,99293.13
2023-09-19T01:08:52.327Z,99291.78
2023-09-19T01:14:13.796Z,99295.03
2023-09-19T01:19:33.964Z,99309.81
2023-09-19T01:24:45.103Z,99310.63
2023-09-19T01:29:47.261Z,99312.00
2023-09-19T01:34:53.371Z,99304.09
2023-09-19T01:39:55.708Z,99309.81
2023-09-19T01:45:11.999Z,99301.88
2023-09-19T01:50:19.438Z,99304.88
2023-09-19T01:55:21.235Z,99306.00
2023-09-19T02:00:22.817Z,99302.66
2023-09-19T02:05:25.371Z,99315.56
2023-09-19T02:10:26.667Z,99313.63
2023-09-19T02:15:28.088Z,99327.59
2023-09-19T02:20:29.655Z,99315.56
2023-09-19T02:25:32.065Z,99315.28
2023-09-19T02:30:33.595Z,99318.31
2023-09-19T02:35:37.206Z,99316.63
2023-09-19T02:40:38.623Z,99325.41
2023-09-19T02:45:40.104Z,99342.09
2023-09-19T02:50:41.576Z,99340.66
2023-09-19T02:55:43.838Z,99342.38
2023-09-19T03:00:47.942Z,99339.09
2023-09-19T03:05:50.834Z,99351.94
2023-09-19T03:10:53.920Z,99355.78
2023-09-19T03:15:57.439Z,99363.72
2023-09-19T03:21:00.896Z,99374.97
2023-09-19T03:26:02.311Z,99377.69
2023-09-19T03:31:04.464Z,99390.50
2023-09-19T03:36:06.038Z,99375.75
2023-09-19T03:41:07.435Z,99371.69
2023-09-19T03:46:08.806Z,99363.72
2023-09-19T03:51:10.189Z,99369.72
2023-09-19T03:56:11.622Z,99370.84
2023-09-19T04:01:14.706Z,99368.66
2023-09-19T04:06:16.673Z,99383.41
2023-09-19T04:11:17.999Z,99391.88
2023-09-19T04:16:19.376Z,99384.22
2023-09-19T04:21:20.764Z,99393.00
2023-09-19T04:26:22.879Z,99392.94
2023-09-19T04:31:24.263Z,99401.22
2023-09-19T04:36:34.953Z,99390.84
2023-09-19T04:41:39.801Z,99400.84
2023-09-19T04:46:41.176Z,99414.00
2023-09-19T04:51:43.436Z,99424.66
2023-09-19T04:56:44.773Z,99425.28
2023-09-19T05:01:46.165Z,99419.75
2023-09-19T05:06:47.515Z,99426.94
2023-09-19T05:11:49.313Z,99433.72
2023-09-19T05:16:50.896Z,99446.91
2023-09-19T05:21:52.364Z,99463.38
2023-09-19T05:26:53.647Z,99451.59
2023-09-19T05:31:55.846Z,99464.94
2023-09-19T05:36:57.203Z,99465.28
2023-09-19T05:41:58.940Z,99464.19
2023-09-19T05:47:00.241Z,99471.06
2023-09-19T05:52:02.236Z,99471.84
2023-09-19T05:57:03.585Z,99481.41
2023-09-19T06:02:06.595Z,99477.31
2023-09-19T06:07:08.050Z,99486.09
2023-09-19T06:12:09.391Z,99481.44
2023-09-19T06:17:11.588Z,99488.81
2023-09-19T06:22:12.988Z,99500.69
2023-09-19T06:27:14.375Z,99509.72
2023-09-19T06:32:15.785Z,99521.03
2023-09-19T06:37:17.189Z,99522.09
2023-09-19T06:42:21.157Z,99540.69
2023-09-19T06:47:23.458Z,99544.53
2023-09-19T06:52:24.782Z,99564.00
2023-09-19T06:57:26.074Z,99573.31
2023-09-19T07:02:27.438Z,99570.09
2023-09-19T07:07:30.313Z,99575.81
2023-09-19T07:12:31.635Z,99588.97
2023-09-19T07:17:34.107Z,99596.44
2023-09-19T07:22:35.938Z,99596.16
2023-09-19T07:27:37.256Z,99609.03
2023-09-19T07:32:39.196Z,99618.09
2023-09-19T07:37:40.575Z,99626.00
2023-09-19T07:42:42.020Z,99635.88
2023-09-19T07:47:50.026Z,99633.66
2023-09-19T07:52:54.290Z,99637.00
2023-09-19T07:57:55.652Z,99642.22
2023-09-19T08:02:58.678Z,99631.25
2023-09-19T08:08:07.892Z,99649.91
2023-09-19T08:13:14.396Z,99642.53
2023-09-19T08:18:16.688Z,99636.00
2023-09-19T08:23:21.123Z,99643.13
2023-09-19T08:28:25.271Z,99654.03
2023-09-19T08:33:26.597Z,99654.63
2023-09-19T08:38:31.420Z,99657.34
2023-09-19T08:43:34.994Z,99659.81
2023-09-19T08:48:36.352Z,99662.56
2023-09-19T08:53:56.226Z,99690.78
2023-09-19T08:59:04.488Z,99683.66
2023-09-19T09:04:05.954Z,99673.81
2023-09-19T09:09:07.296Z,99685.34
2023-09-19T09:14:08.927Z,99675.72
2023-09-19T09:19:12.166Z,99675.78
2023-09-19T09:24:30.165Z,99659.97
2023-09-19T09:29:44.625Z,99668.91
2023-09-19T09:34:46.049Z,99694.72
2023-09-19T09:39:52.863Z,99687.88
2023-09-19T09:45:13.461Z,99686.50
2023-09-19T09:50:18.542Z,99696.94
2023-09-19T09:55:21.431Z,99690.69
2023-09-19T10:00:22.861Z,99698.88
2023-09-19T10:05:30.056Z,99695.38
2023-09-19T10:10:54.762Z,99703.00
2023-09-19T10:15:57.560Z,99684.94
2023-09-19T10:20:58.887Z,99683.03
2023-09-19T10:26:02.623Z,99686.25
2023-09-19T10:31:04.112Z,99700.31
2023-09-19T10:36:05.842Z,99690.69
2023-09-19T10:41:07.177Z,99696.75
2023-09-19T10:46:08.962Z,99707.97
2023-09-19T10:51:11.433Z,99692.09
2023-09-19T10:56:18.396Z,99701.66
2023-09-19T11:01:21.404Z,99697.28
2023-09-19T11:06:23.764Z,99686.34
2023-09-19T11:11:39.952Z,99681.41
2023-09-19T11:16:41.286Z,99691.59
2023-09-19T11:21:43.291Z,99675.66
2023-09-19T11:26:48.378Z,99679.50
2023-09-19T11:31:52.180Z,99685.84
2023-09-19T11:36:55.146Z,99682.88
2023-09-19T11:41:57.784Z,99692.47
2023-09-19T11:47:00.083Z,99684.84
2023-09-19T11:52:02.332Z,99697.72
2023-09-19T11:57:03.883Z,99674.66
2023-09-19T12:02:06.016Z,99676.59
2023-09-19T12:07:11.662Z,99675.78
2023-09-19T12:12:13.558Z,99681.03
2023-09-19T12:17:14.994Z,99704.88
2023-09-19T12:22:17.001Z,99692.53
2023-09-19T12:27:18.485Z,99684.31
2023-09-19T12:32:21.953Z,99693.06
2023-09-19T12:37:23.657Z,99685.41
2023-09-19T12:42:25.524Z,99689.78
2023-09-19T12:47:26.872Z,99678.53
2023-09-19T12:52:34.626Z,99678.28
2023-09-19T12:57:35.967Z,99673.34
2023-09-19T13:02:37.601Z,99676.38
2023-09-19T13:07:45.204Z,99682.97
2023-09-19T13:12:47.963Z,99677.75
2023-09-19T13:17:49.590Z,99678.59
2023-09-19T13:22:54.912Z,99679.97
2023-09-19T13:27:57.008Z,99671.22
2023-09-19T13:33:08.502Z,99664.31
2023-09-19T13:38:13.643Z,99669.56
2023-09-19T13:43:15.001Z,99669.56
2023-09-19T13:48:16.330Z,99662.13
2023-09-19T13:53:18.024Z,99667.31
2023-09-19T13:58:19.421Z,99666.78
2023-09-19T14:03:22.511Z,99666.81
2023-09-19T14:08:24.623Z,99657.50
2023-09-19T14:13:26.654Z,99663.53
2023-09-19T14:18:28.044Z,99662.69
2023-09-19T14:23:29.379Z,99653.38
2023-09-19T14:28:30.915Z,99660.78
2023-09-19T14:33:32.532Z,99654.44
2023-09-19T14:38:34.581Z,99652.50
2023-09-19T14:43:35.934Z,99642.03
2023-09-19T14:48:37.453Z,99646.69
2023-09-19T14:53:39.049Z,99628.84
2023-09-19T14:58:41.303Z,99645.25
2023-09-19T15:03:43.449Z,99637.03
2023-09-19T15:08:48.324Z,99642.50
2023-09-19T15:13:52.792Z,99635.66
2023-09-19T15:18:56.240Z,99643.06
2023-09-19T15:23:58.135Z,99631.28
2023-09-19T15:28:59.588Z,99638.66
2023-09-19T15:34:02.277Z,99633.72
2023-09-19T15:39:08.362Z,99629.09
2023-09-19T15:44:13.159Z,99626.63
2023-09-19T15:49:14.825Z,99629.63
2023-09-19T15:54:16.313Z,99629.38
2023-09-19T15:59:17.652Z,99635.41
2023-09-19T16:04:19.035Z,99639.22
2023-09-19T16:09:20.321Z,99625.50
2023-09-19T16:14:21.696Z,99627.47
2023-09-19T16:19:23.048Z,99634.03
2023-09-19T16:24:24.995Z,99643.59
2023-09-19T16:29:26.332Z,99649.88
2023-09-19T16:34:27.741Z,99655.91
2023-09-19T16:39:29.059Z,99656.47
2023-09-19T16:44:30.776Z,99659.44
2023-09-19T16:49:32.119Z,99661.34
2023-09-19T16:54:33.416Z,99677.03
2023-09-19T16:59:34.759Z,99684.44
2023-09-19T17:04:36.100Z,99677.50
2023-09-19T17:09:37.409Z,99687.41
2023-09-19T17:14:39.323Z,99686.03
2023-09-19T17:19:40.686Z,99690.66
2023-09-19T17:24:42.081Z,99694.72
2023-09-19T17:29:43.370Z,99699.88
2023-09-19T17:34:47.274Z,99708.44
2023-09-19T17:39:48.620Z,99712.50
2023-09-19T17:44:50.237Z,99708.38
2023-09-19T17:49:51.595Z,99702.31
2023-09-19T17:54:52.952Z,99705.00
2023-09-19T17:59:55.154Z,99714.59
2023-09-19T18:04:57.527Z,99726.91
2023-09-19T18:10:02.445Z,99734.28
2023-09-19T18:15:03.929Z,99750.09
2023-09-19T18:20:11.043Z,99758.81
2023-09-19T18:25:14.228Z,99761.06
2023-09-19T18:30:16.029Z,99769.75
2023-09-19T18:35:17.489Z,99777.41
2023-09-19T18:40:18.791Z,99776.59
2023-09-19T18:45:34.756Z,99774.13
2023-09-19T18:50:42.090Z,99791.59
2023-09-19T18:55:43.497Z,99787.19
2023-09-19T19:00:45.053Z,99791.50
2023-09-19T19:05:47.375Z,99789.25
2023-09-19T19:10:48.734Z,99790.94
2023-09-19T19:15:50.040Z,99798.03
2023-09-19T19:20:57.661Z,99797.78
2023-09-19T19:26:00.923Z,99792.53
2023-09-19T19:31:03.909Z,99800.47
2023-09-19T19:36:08.927Z,99799.13
2023-09-19T19:41:10.317Z,99798.25
2023-09-19T19:46:11.673Z,99807.84
2023-09-19T19:51:14.419Z,99810.53
2023-09-19T19:56:15.788Z,99813.56
2023-09-19T20:01:17.243Z,99813.88
2023-09-19T20:06:23.214Z,99802.31
2023-09-19T20:11:29.864Z,99807.53
2023-09-19T20:16:33.057Z,99801.19
2023-09-19T20:21:35.847Z,99807.22
2023-09-19T20:26:38.489Z,99808.81
2023-09-19T20:31:40.000Z,99805.56
2023-09-19T20:36:41.979Z,99811.06
2023-09-19T20:41:43.459Z,99803.63
2023-09-19T20:46:47.298Z,99799.25
2023-09-19T20:51:48.706Z,99806.09
2023-09-19T20:56:51.439Z,99796.47
2023-09-19T21:01:53.142Z,99791.25
2023-09-19T21:06:55.045Z,99793.97
2023-09-19T21:11:56.383Z,99797.03
2023-09-19T21:16:57.792Z,99794.31
2023-09-19T21:21:59.154Z,99798.38
2023-09-19T21:27:05.548Z,99794.53
2023-09-19T21:32:09.404Z,99792.81
2023-09-19T21:37:14.846Z,99786.25
2023-09-19T21:42:16.152Z,99799.69
2023-09-19T21:47:17.502Z,99789.81
2023-09-19T21:52:18.860Z,99786.19
2023-09-19T21:57:20.207Z,99792.81
2023-09-19T22:02:21.849Z,99778.13
2023-09-19T22:07:23.696Z,99776.66
2023-09-19T22:12:26.390Z,99775.19
2023-09-19T22:17:27.836Z,99775.75
2023-09-19T22:22:30.627Z,99767.56
2023-09-19T22:27:31.958Z,99763.75
2023-09-19T22:32:35.116Z,99761.81
2023-09-19T22:37:38.053Z,99759.91
2023-09-19T22:42:41.898Z,99755.03
2023-09-19T22:47:44.990Z,99757.25
2023-09-19T22:52:51.343Z,99762.13
2023-09-19T22:57:55.762Z,99762.97
2023-09-19T23:02:57.310Z,99767.91
2023-09-19T23:08:00.490Z,99768.69
2023-09-19T23:13:01.781Z,99774.19
2023-09-19T23:18:03.152Z,99777.34
2023-09-19T23:23:05.478Z,99768.69
2023-09-19T23:28:07.352Z,99772.84
2023-09-19T23:33:08.777Z,99765.66
2023-09-19T23:38:10.115Z,99767.88
2023-09-19T23:43:11.670Z,99776.59
2023-09-19T23:48:13.133Z,99772.47
2023-09-19T23:53:15.361Z,99779.34
2023-09-19T23:58:16.710Z,99778.81
